createdAt,value
2023-04-09T00:03:03.756Z,18
2023-04-09T00:07:55.384Z,18
2023-04-09T00:12:55.348Z,17.9
2023-04-09T00:18:11.628Z,17.9
2023-04-09T00:22:55.608Z,17.1
2023-04-09T00:27:55.345Z,17.1
2023-04-09T00:32:55.512Z,17.1
2023-04-09T00:37:55.342Z,17.3
2023-04-09T00:42:55.473Z,17.3
2023-04-09T00:47:55.521Z,17.5
2023-04-09T00:52:55.377Z,17.6
2023-04-09T00:57:55.339Z,17.6
2023-04-09T01:02:55.642Z,17.7
2023-04-09T01:07:55.368Z,17.7
2023-04-09T01:12:55.365Z,17.6
2023-04-09T01:17:55.496Z,17.5
2023-04-09T01:22:55.374Z,17.3
2023-04-09T01:38:08.606Z,17.8
2023-04-09T01:43:27.914Z,17.45
2023-04-09T01:47:55.378Z,17.7
2023-04-09T01:52:55.365Z,17.4
2023-04-09T01:57:55.514Z,17.1
2023-04-09T02:02:55.395Z,17.1
2023-04-09T02:07:55.411Z,17.1
2023-04-09T02:12:55.463Z,16.9
2023-04-09T02:17:55.408Z,16.9
2023-04-09T02:22:55.387Z,16.9
2023-04-09T02:27:55.396Z,17
2023-04-09T02:32:55.368Z,17.1
2023-04-09T02:37:55.430Z,17.2
2023-04-09T02:42:55.451Z,17.3
2023-04-09T02:47:55.448Z,17.3
2023-04-09T02:52:55.370Z,17.3
2023-04-09T02:57:55.366Z,17.2
2023-04-09T03:02:55.524Z,17.2
2023-04-09T03:07:55.426Z,16.9
2023-04-09T03:12:55.527Z,16.4
2023-04-09T03:17:55.391Z,15.6
2023-04-09T03:22:55.431Z,15.5
2023-04-09T03:27:55.356Z,15.5
2023-04-09T03:32:55.389Z,15.4
2023-04-09T03:37:55.446Z,15.3
2023-04-09T03:42:55.405Z,14.8
2023-04-09T03:47:58.432Z,14.5
2023-04-09T03:52:55.437Z,14.3
2023-04-09T03:57:58.384Z,14.3
2023-04-09T04:02:55.448Z,14.3
2023-04-09T04:07:55.325Z,14.3
2023-04-09T04:12:55.559Z,14.6
2023-04-09T04:17:55.495Z,14.6
2023-04-09T04:22:55.460Z,14.7
2023-04-09T04:27:55.454Z,15
2023-04-09T04:32:55.413Z,15.4
2023-04-09T04:37:55.533Z,16.1
2023-04-09T04:42:55.379Z,16.2
2023-04-09T04:47:55.533Z,16.2
2023-04-09T04:52:55.427Z,16.2
2023-04-09T04:57:55.413Z,16.2
2023-04-09T05:02:55.716Z,16.2
2023-04-09T05:07:55.446Z,16.2
2023-04-09T05:12:55.436Z,15.9
2023-04-09T05:17:55.409Z,15.9
2023-04-09T05:22:55.399Z,15.9
2023-04-09T05:27:55.395Z,15.9
2023-04-09T05:32:55.527Z,15.9
2023-04-09T05:37:55.404Z,21.9
2023-04-09T05:42:55.420Z,21.9
2023-04-09T05:47:55.724Z,21.9
2023-04-09T05:52:55.429Z,18.3
2023-04-09T05:57:55.392Z,18.3
2023-04-09T06:02:55.484Z,19
2023-04-09T06:07:55.417Z,18.5
2023-04-09T06:12:55.468Z,18.5
2023-04-09T06:17:56.891Z,19
2023-04-09T06:22:55.430Z,19.7
2023-04-09T06:27:55.666Z,19.8
2023-04-09T06:32:58.480Z,20.3
2023-04-09T06:37:55.483Z,20.8
2023-04-09T06:42:55.507Z,21.3
2023-04-09T06:47:55.433Z,22.6
2023-04-09T06:52:55.382Z,23.1
2023-04-09T06:57:55.374Z,23.1
2023-04-09T07:02:55.608Z,23.1
2023-04-09T07:07:55.401Z,25.2
2023-04-09T07:12:55.482Z,28.5
2023-04-09T07:17:55.444Z,28.8
2023-04-09T07:22:55.401Z,29.6
2023-04-09T07:27:55.386Z,31.7
2023-04-09T07:32:55.483Z,36.2
2023-04-09T07:37:55.467Z,38.5
2023-04-09T07:42:55.512Z,38.6
2023-04-09T07:47:55.493Z,39
2023-04-09T07:52:55.486Z,39.5
2023-04-09T07:57:55.449Z,39.5
2023-04-09T08:02:55.546Z,39.5
2023-04-09T08:07:55.505Z,39.5
2023-04-09T08:12:55.503Z,39.5
2023-04-09T08:17:55.478Z,39
2023-04-09T08:22:55.585Z,38.8
2023-04-09T08:27:55.501Z,38.8
2023-04-09T08:32:55.453Z,36.7
2023-04-09T08:37:55.478Z,33.7
2023-04-09T08:42:55.458Z,33.6
2023-04-09T08:47:55.449Z,26.8
2023-04-09T08:52:55.431Z,25.5
2023-04-09T08:57:55.509Z,21.2
2023-04-09T09:02:55.607Z,21.2
2023-04-09T09:07:55.464Z,19.6
2023-04-09T09:12:55.472Z,17.9
2023-04-09T09:17:55.488Z,17.5
2023-04-09T09:22:56.487Z,17.1
2023-04-09T09:27:55.484Z,15
2023-04-09T09:32:55.566Z,14.9
2023-04-09T09:37:55.483Z,14.4
2023-04-09T09:42:55.702Z,14.3
2023-04-09T09:47:55.549Z,13.7
2023-04-09T09:52:55.550Z,13.7
2023-04-09T09:57:55.441Z,13.2
2023-04-09T10:02:55.630Z,12.3
2023-04-09T10:07:55.493Z,12
2023-04-09T10:12:55.444Z,11.2
2023-04-09T10:17:55.482Z,10.7
2023-04-09T10:22:55.506Z,10.6
2023-04-09T10:27:55.427Z,9.4
2023-04-09T10:32:55.492Z,9.1
2023-04-09T10:37:55.524Z,9.1
2023-04-09T10:42:55.473Z,9.1
2023-04-09T10:47:55.461Z,9.1
2023-04-09T10:52:55.538Z,8.9
2023-04-09T10:57:55.546Z,8.8
2023-04-09T11:02:55.679Z,8.7
2023-04-09T11:07:55.491Z,8.7
2023-04-09T11:12:55.586Z,8
2023-04-09T11:17:55.500Z,7.5
2023-04-09T11:22:55.597Z,7.5
2023-04-09T11:27:55.491Z,7.5
2023-04-09T11:32:55.418Z,7.5
2023-04-09T11:37:55.517Z,7.3
2023-04-09T11:42:55.459Z,7.3
2023-04-09T11:47:55.495Z,7.3
2023-04-09T11:52:55.469Z,6.8
2023-04-09T11:57:55.479Z,6.6
2023-04-09T12:02:55.564Z,6.2
2023-04-09T12:07:58.519Z,6.1
2023-04-09T12:12:55.494Z,6
2023-04-09T12:17:55.537Z,6
2023-04-09T12:22:55.444Z,5.8
2023-04-09T12:27:55.561Z,5.8
2023-04-09T12:32:55.524Z,5.5
2023-04-09T12:37:55.565Z,5.5
2023-04-09T12:42:55.573Z,5.5
2023-04-09T12:47:55.502Z,5.8
2023-04-09T12:52:55.479Z,5.8
2023-04-09T12:57:55.452Z,5.9
2023-04-09T13:02:55.721Z,5.9
2023-04-09T13:07:55.534Z,6.1
2023-04-09T13:12:55.664Z,6.1
2023-04-09T13:17:55.497Z,6.1
2023-04-09T13:22:55.527Z,6.3
2023-04-09T13:27:55.467Z,6.3
2023-04-09T13:32:55.511Z,6.8
2023-04-09T13:37:55.562Z,7
2023-04-09T13:42:55.644Z,7.1
2023-04-09T13:47:55.558Z,7.1
2023-04-09T13:52:55.444Z,7.1
2023-04-09T13:57:55.427Z,7.2
2023-04-09T14:02:55.529Z,7.1
2023-04-09T14:07:55.533Z,7.1
2023-04-09T14:12:55.479Z,7
2023-04-09T14:17:55.527Z,7
2023-04-09T14:22:55.547Z,7
2023-04-09T14:27:55.478Z,7
2023-04-09T14:32:55.516Z,6.9
2023-04-09T14:37:56.548Z,6.8
2023-04-09T14:42:55.622Z,6.7
2023-04-09T14:47:55.513Z,6.6
2023-04-09T14:52:56.019Z,6.5
2023-04-09T14:57:55.437Z,6.5
2023-04-09T15:02:55.690Z,6.5
2023-04-09T15:07:55.497Z,6.2
2023-04-09T15:12:55.546Z,6.2
2023-04-09T15:17:55.514Z,6.2
2023-04-09T15:22:56.615Z,6.2
2023-04-09T15:27:55.473Z,6.3
2023-04-09T15:32:55.810Z,6.4
2023-04-09T15:37:55.580Z,6.3
2023-04-09T15:42:55.662Z,6.3
2023-04-09T15:47:55.543Z,6.4
2023-04-09T15:52:55.688Z,6.4
2023-04-09T15:57:55.494Z,6.3
2023-04-09T16:02:55.533Z,6.3
2023-04-09T16:07:56.435Z,6.1
2023-04-09T16:12:55.520Z,6.1
2023-04-09T16:17:55.917Z,6.1
2023-04-09T16:22:55.634Z,6
2023-04-09T16:27:55.624Z,6.1
2023-04-09T16:32:57.271Z,6
2023-04-09T16:37:55.547Z,6
2023-04-09T16:42:55.562Z,6.7
2023-04-09T16:47:55.555Z,6.7
2023-04-09T16:52:55.506Z,6.7
2023-04-09T16:57:55.561Z,7
2023-04-09T17:02:55.898Z,7
2023-04-09T17:07:55.518Z,7.1
2023-04-09T17:12:55.642Z,7.2
2023-04-09T17:17:55.531Z,7.2
2023-04-09T17:22:55.628Z,7.2
2023-04-09T17:27:55.497Z,8
2023-04-09T17:32:55.654Z,8.6
2023-04-09T17:37:55.544Z,9.2
2023-04-09T17:42:55.752Z,9.2
2023-04-09T17:47:55.544Z,9.2
2023-04-09T17:52:55.587Z,9.2
2023-04-09T17:57:55.619Z,9.1
2023-04-09T18:02:55.642Z,8.2
2023-04-09T18:07:56.593Z,8.2
2023-04-09T18:12:55.524Z,8.2
2023-04-09T18:17:55.645Z,8.6
2023-04-09T18:22:55.593Z,9.1
2023-04-09T18:27:55.537Z,8.6
2023-04-09T18:32:55.548Z,9.1
2023-04-09T18:37:55.617Z,9.6
2023-04-09T18:42:55.500Z,9.7
2023-04-09T18:47:55.562Z,10.1
2023-04-09T18:52:55.583Z,9.9
2023-04-09T18:57:55.593Z,10.1
2023-04-09T19:02:55.592Z,10.1
2023-04-09T19:07:55.510Z,10.1
2023-04-09T19:12:55.606Z,10
2023-04-09T19:17:55.565Z,9.9
2023-04-09T19:22:57.810Z,9.5
2023-04-09T19:27:55.526Z,9.5
2023-04-09T19:32:55.569Z,9.5
2023-04-09T19:37:55.670Z,9.5
2023-04-09T19:42:55.675Z,9.5
2023-04-09T19:47:58.622Z,9.8
2023-04-09T19:52:55.608Z,11.5
2023-04-09T19:57:55.674Z,12.5
2023-04-09T20:02:55.659Z,13.6
2023-04-09T20:07:55.568Z,16.8
2023-04-09T20:12:55.555Z,16.8
2023-04-09T20:17:55.550Z,16.8
2023-04-09T20:22:58.576Z,14
2023-04-09T20:27:55.580Z,14
2023-04-09T20:32:55.635Z,12.6
2023-04-09T20:37:55.629Z,10.7
2023-04-09T20:42:55.524Z,10
2023-04-09T20:47:55.605Z,10
2023-04-09T20:52:55.636Z,10
2023-04-09T20:57:55.568Z,10.2
2023-04-09T21:02:55.648Z,10.7
2023-04-09T21:07:55.579Z,10.8
2023-04-09T21:12:55.599Z,10.8
2023-04-09T21:17:55.601Z,10.8
2023-04-09T21:22:55.556Z,10.8
2023-04-09T21:27:55.568Z,10.8
2023-04-09T21:32:55.598Z,10.8
2023-04-09T21:37:58.017Z,10.8
2023-04-09T21:42:55.625Z,10.6
2023-04-09T21:47:55.674Z,10.6
2023-04-09T21:52:55.631Z,10.6
2023-04-09T21:57:55.575Z,10.6
2023-04-09T22:02:55.663Z,10.9
2023-04-09T22:07:55.645Z,11.2
2023-04-09T22:12:56.081Z,11.2
2023-04-09T22:17:55.643Z,11.2
2023-04-09T22:22:55.696Z,10.2
2023-04-09T22:27:55.603Z,10.1
2023-04-09T22:32:55.738Z,9.9
2023-04-09T22:37:56.054Z,9.7
2023-04-09T22:42:55.739Z,9.7
2023-04-09T22:47:55.724Z,9.7
2023-04-09T22:52:55.603Z,9.9
2023-04-09T22:57:55.645Z,10.3
2023-04-09T23:02:55.852Z,11
2023-04-09T23:07:55.558Z,11.3
2023-04-09T23:12:55.655Z,11.4
2023-04-09T23:17:55.709Z,11.4
2023-04-09T23:22:55.626Z,11.4
2023-04-09T23:27:55.574Z,11.4
2023-04-09T23:32:58.555Z,11.4
2023-04-09T23:37:55.654Z,11.8
2023-04-09T23:42:55.643Z,11.9
2023-04-09T23:47:55.553Z,12.4
2023-04-09T23:52:55.627Z,12.4
2023-04-09T23:57:55.672Z,12.4
